sensor_id;sensor_type;location;lat;lon;timestamp;P1;durP1;ratioP1;P2;durP2;ratioP2
1799;SDS011;919;48.274;12.292;2023-05-10T00:01:01;2.47;;;1.47;;
1799;SDS011;919;48.274;12.292;2023-05-10T00:03:28;2.77;;;1.40;;
1799;SDS011;919;48.274;12.292;2023-05-10T00:05:54;1.47;;;1.37;;
1799;SDS011;919;48.274;12.292;2023-05-10T00:08:21;2.30;;;1.40;;
1799;SDS011;919;48.274;12.292;2023-05-10T00:10:48;1.20;;;1.10;;
1799;SDS011;919;48.274;12.292;2023-05-10T00:13:15;1.03;;;1.03;;
1799;SDS011;919;48.274;12.292;2023-05-10T00:15:41;1.43;;;1.30;;
1799;SDS011;919;48.274;12.292;2023-05-10T00:18:10;1.30;;;1.20;;
1799;SDS011;919;48.274;12.292;2023-05-10T00:20:36;5.13;;;1.00;;
1799;SDS011;919;48.274;12.292;2023-05-10T00:23:03;1.20;;;0.90;;
1799;SDS011;919;48.274;12.292;2023-05-10T00:25:30;1.50;;;1.40;;
1799;SDS011;919;48.274;12.292;2023-05-10T00:27:57;1.23;;;1.13;;
1799;SDS011;919;48.274;12.292;2023-05-10T00:30:23;2.40;;;1.27;;
1799;SDS011;919;48.274;12.292;2023-05-10T00:32:50;1.10;;;1.10;;
1799;SDS011;919;48.274;12.292;2023-05-10T00:35:18;1.10;;;1.00;;
1799;SDS011;919;48.274;12.292;2023-05-10T00:37:46;1.43;;;1.10;;
1799;SDS011;919;48.274;12.292;2023-05-10T00:40:13;0.90;;;0.90;;
1799;SDS011;919;48.274;12.292;2023-05-10T00:42:40;1.00;;;1.00;;
1799;SDS011;919;48.274;12.292;2023-05-10T00:45:07;1.20;;;1.10;;
1799;SDS011;919;48.274;12.292;2023-05-10T00:47:34;1.80;;;1.00;;
1799;SDS011;919;48.274;12.292;2023-05-10T00:50:01;1.10;;;1.10;;
1799;SDS011;919;48.274;12.292;2023-05-10T00:52:30;0.97;;;0.97;;
1799;SDS011;919;48.274;12.292;2023-05-10T00:54:56;1.20;;;1.03;;
1799;SDS011;919;48.274;12.292;2023-05-10T00:57:23;2.10;;;0.97;;
1799;SDS011;919;48.274;12.292;2023-05-10T00:59:50;1.00;;;1.00;;
1799;SDS011;919;48.274;12.292;2023-05-10T01:02:18;3.17;;;1.00;;
1799;SDS011;919;48.274;12.292;2023-05-10T01:04:44;2.00;;;1.30;;
1799;SDS011;919;48.274;12.292;2023-05-10T01:07:11;1.30;;;1.20;;
1799;SDS011;919;48.274;12.292;2023-05-10T01:09:39;1.00;;;1.00;;
1799;SDS011;919;48.274;12.292;2023-05-10T01:12:06;1.80;;;1.60;;
1799;SDS011;919;48.274;12.292;2023-05-10T01:14:33;1.93;;;1.20;;
1799;SDS011;919;48.274;12.292;2023-05-10T01:17:02;1.70;;;1.17;;
1799;SDS011;919;48.274;12.292;2023-05-10T01:19:30;1.43;;;1.17;;
1799;SDS011;919;48.274;12.292;2023-05-10T01:22:03;1.17;;;1.17;;
1799;SDS011;919;48.274;12.292;2023-05-10T01:24:42;1.20;;;1.10;;
1799;SDS011;919;48.274;12.292;2023-05-10T01:27:39;1.60;;;1.50;;
1799;SDS011;919;48.274;12.292;2023-05-10T01:30:42;1.70;;;1.60;;
1799;SDS011;919;48.274;12.292;2023-05-10T01:33:42;1.50;;;1.40;;
1799;SDS011;919;48.274;12.292;2023-05-10T01:36:16;1.93;;;1.70;;
1799;SDS011;919;48.274;12.292;2023-05-10T01:38:52;1.70;;;1.60;;
1799;SDS011;919;48.274;12.292;2023-05-10T01:41:24;1.63;;;1.30;;
1799;SDS011;919;48.274;12.292;2023-05-10T01:43:56;1.40;;;1.30;;
1799;SDS011;919;48.274;12.292;2023-05-10T01:46:37;1.33;;;1.23;;
1799;SDS011;919;48.274;12.292;2023-05-10T01:49:07;1.73;;;1.40;;
1799;SDS011;919;48.274;12.292;2023-05-10T01:51:38;1.60;;;1.50;;
1799;SDS011;919;48.274;12.292;2023-05-10T01:54:11;2.30;;;1.70;;
1799;SDS011;919;48.274;12.292;2023-05-10T01:56:39;1.70;;;1.60;;
1799;SDS011;919;48.274;12.292;2023-05-10T01:59:09;1.53;;;1.43;;
1799;SDS011;919;48.274;12.292;2023-05-10T02:01:39;1.43;;;1.33;;
1799;SDS011;919;48.274;12.292;2023-05-10T02:04:08;1.33;;;1.23;;
1799;SDS011;919;48.274;12.292;2023-05-10T02:06:37;1.87;;;1.77;;
1799;SDS011;919;48.274;12.292;2023-05-10T02:09:05;1.80;;;1.70;;
1799;SDS011;919;48.274;12.292;2023-05-10T02:11:34;1.37;;;1.27;;
1799;SDS011;919;48.274;12.292;2023-05-10T02:14:03;1.47;;;1.37;;
1799;SDS011;919;48.274;12.292;2023-05-10T02:16:34;1.70;;;1.23;;
1799;SDS011;919;48.274;12.292;2023-05-10T02:19:02;1.97;;;1.83;;
1799;SDS011;919;48.274;12.292;2023-05-10T02:21:31;1.97;;;1.77;;
1799;SDS011;919;48.274;12.292;2023-05-10T02:23:59;1.47;;;1.37;;
1799;SDS011;919;48.274;12.292;2023-05-10T02:26:28;2.00;;;1.47;;
1799;SDS011;919;48.274;12.292;2023-05-10T02:28:57;1.77;;;1.67;;
1799;SDS011;919;48.274;12.292;2023-05-10T02:31:24;2.20;;;1.43;;
1799;SDS011;919;48.274;12.292;2023-05-10T02:33:52;1.63;;;1.53;;
1799;SDS011;919;48.274;12.292;2023-05-10T02:36:20;1.80;;;1.70;;
1799;SDS011;919;48.274;12.292;2023-05-10T02:38:49;1.73;;;1.40;;
1799;SDS011;919;48.274;12.292;2023-05-10T02:41:19;1.40;;;1.30;;
1799;SDS011;919;48.274;12.292;2023-05-10T02:43:47;2.10;;;1.90;;
1799;SDS011;919;48.274;12.292;2023-05-10T02:46:16;2.67;;;2.37;;
1799;SDS011;919;48.274;12.292;2023-05-10T02:48:43;1.40;;;1.30;;
1799;SDS011;919;48.274;12.292;2023-05-10T02:51:10;1.27;;;1.17;;
1799;SDS011;919;48.274;12.292;2023-05-10T02:53:40;1.87;;;1.30;;
1799;SDS011;919;48.274;12.292;2023-05-10T02:56:11;1.20;;;1.10;;
1799;SDS011;919;48.274;12.292;2023-05-10T02:58:40;1.03;;;0.93;;
1799;SDS011;919;48.274;12.292;2023-05-10T03:01:08;0.90;;;0.90;;
1799;SDS011;919;48.274;12.292;2023-05-10T03:03:35;0.80;;;0.80;;
1799;SDS011;919;48.274;12.292;2023-05-10T03:06:01;1.60;;;1.17;;
1799;SDS011;919;48.274;12.292;2023-05-10T03:08:28;1.93;;;1.00;;
1799;SDS011;919;48.274;12.292;2023-05-10T03:10:59;0.80;;;0.80;;
1799;SDS011;919;48.274;12.292;2023-05-10T03:13:36;1.10;;;0.83;;
1799;SDS011;919;48.274;12.292;2023-05-10T03:16:12;1.10;;;1.03;;
1799;SDS011;919;48.274;12.292;2023-05-10T03:18:42;0.97;;;0.80;;
1799;SDS011;919;48.274;12.292;2023-05-10T03:21:11;1.13;;;0.70;;
1799;SDS011;919;48.274;12.292;2023-05-10T03:23:40;1.50;;;1.20;;
1799;SDS011;919;48.274;12.292;2023-05-10T03:26:09;0.90;;;0.90;;
1799;SDS011;919;48.274;12.292;2023-05-10T03:28:42;0.87;;;0.80;;
1799;SDS011;919;48.274;12.292;2023-05-10T03:31:09;0.80;;;0.80;;
1799;SDS011;919;48.274;12.292;2023-05-10T03:33:45;0.70;;;0.70;;
1799;SDS011;919;48.274;12.292;2023-05-10T03:36:12;1.13;;;1.03;;
1799;SDS011;919;48.274;12.292;2023-05-10T03:38:39;1.73;;;0.80;;
1799;SDS011;919;48.274;12.292;2023-05-10T03:41:06;0.80;;;0.80;;
1799;SDS011;919;48.274;12.292;2023-05-10T03:43:32;0.90;;;0.90;;
1799;SDS011;919;48.274;12.292;2023-05-10T03:46:02;0.77;;;0.77;;
1799;SDS011;919;48.274;12.292;2023-05-10T03:48:29;1.27;;;0.80;;
1799;SDS011;919;48.274;12.292;2023-05-10T03:50:56;0.80;;;0.73;;
1799;SDS011;919;48.274;12.292;2023-05-10T03:53:22;1.10;;;0.80;;
1799;SDS011;919;48.274;12.292;2023-05-10T03:55:49;0.83;;;0.83;;
1799;SDS011;919;48.274;12.292;2023-05-10T03:58:16;0.80;;;0.80;;
1799;SDS011;919;48.274;12.292;2023-05-10T04:00:43;0.80;;;0.80;;
1799;SDS011;919;48.274;12.292;2023-05-10T04:03:11;0.70;;;0.70;;
1799;SDS011;919;48.274;12.292;2023-05-10T04:05:38;1.97;;;1.00;;
1799;SDS011;919;48.274;12.292;2023-05-10T04:08:05;0.80;;;0.70;;
1799;SDS011;919;48.274;12.292;2023-05-10T04:10:32;0.80;;;0.80;;
1799;SDS011;919;48.274;12.292;2023-05-10T04:12:59;0.90;;;0.90;;
1799;SDS011;919;48.274;12.292;2023-05-10T04:15:26;0.80;;;0.80;;
1799;SDS011;919;48.274;12.292;2023-05-10T04:17:53;0.60;;;0.60;;
1799;SDS011;919;48.274;12.292;2023-05-10T04:20:21;1.20;;;1.10;;
1799;SDS011;919;48.274;12.292;2023-05-10T04:22:48;1.00;;;1.00;;
1799;SDS011;919;48.274;12.292;2023-05-10T04:25:15;0.90;;;0.90;;
1799;SDS011;919;48.274;12.292;2023-05-10T04:27:42;0.60;;;0.60;;
1799;SDS011;919;48.274;12.292;2023-05-10T04:30:09;1.43;;;0.83;;
1799;SDS011;919;48.274;12.292;2023-05-10T04:32:36;1.53;;;1.30;;
1799;SDS011;919;48.274;12.292;2023-05-10T04:35:03;1.93;;;1.37;;
1799;SDS011;919;48.274;12.292;2023-05-10T04:37:31;1.03;;;0.90;;
1799;SDS011;919;48.274;12.292;2023-05-10T04:39:58;0.90;;;0.80;;
1799;SDS011;919;48.274;12.292;2023-05-10T04:42:25;1.47;;;1.10;;
1799;SDS011;919;48.274;12.292;2023-05-10T04:44:52;1.23;;;1.07;;
1799;SDS011;919;48.274;12.292;2023-05-10T04:47:19;0.90;;;0.90;;
1799;SDS011;919;48.274;12.292;2023-05-10T04:49:45;1.23;;;1.13;;
1799;SDS011;919;48.274;12.292;2023-05-10T04:52:12;0.67;;;0.67;;
1799;SDS011;919;48.274;12.292;2023-05-10T04:54:41;0.80;;;0.80;;
1799;SDS011;919;48.274;12.292;2023-05-10T04:57:08;0.70;;;0.60;;
1799;SDS011;919;48.274;12.292;2023-05-10T04:59:35;0.70;;;0.70;;
1799;SDS011;919;48.274;12.292;2023-05-10T05:02:02;0.87;;;0.87;;
1799;SDS011;919;48.274;12.292;2023-05-10T05:04:29;0.80;;;0.80;;
1799;SDS011;919;48.274;12.292;2023-05-10T05:06:56;0.93;;;0.80;;
1799;SDS011;919;48.274;12.292;2023-05-10T05:09:23;0.70;;;0.67;;
1799;SDS011;919;48.274;12.292;2023-05-10T05:11:51;0.70;;;0.70;;
1799;SDS011;919;48.274;12.292;2023-05-10T05:14:17;1.10;;;0.90;;
1799;SDS011;919;48.274;12.292;2023-05-10T05:16:45;0.70;;;0.70;;
1799;SDS011;919;48.274;12.292;2023-05-10T05:19:12;0.80;;;0.80;;
1799;SDS011;919;48.274;12.292;2023-05-10T05:21:39;0.90;;;0.90;;
1799;SDS011;919;48.274;12.292;2023-05-10T05:24:06;1.40;;;0.90;;
1799;SDS011;919;48.274;12.292;2023-05-10T05:26:33;1.00;;;1.00;;
1799;SDS011;919;48.274;12.292;2023-05-10T05:29:01;1.10;;;0.87;;
1799;SDS011;919;48.274;12.292;2023-05-10T05:31:28;0.83;;;0.73;;
1799;SDS011;919;48.274;12.292;2023-05-10T05:33:55;1.47;;;0.90;;
1799;SDS011;919;48.274;12.292;2023-05-10T05:36:22;0.83;;;0.70;;
1799;SDS011;919;48.274;12.292;2023-05-10T05:38:49;1.00;;;0.70;;
1799;SDS011;919;48.274;12.292;2023-05-10T05:41:16;1.37;;;1.30;;
1799;SDS011;919;48.274;12.292;2023-05-10T05:43:42;0.80;;;0.70;;
1799;SDS011;919;48.274;12.292;2023-05-10T05:46:11;0.80;;;0.80;;
1799;SDS011;919;48.274;12.292;2023-05-10T05:48:37;0.90;;;0.90;;
1799;SDS011;919;48.274;12.292;2023-05-10T05:51:04;0.90;;;0.90;;
1799;SDS011;919;48.274;12.292;2023-05-10T05:53:31;0.60;;;0.60;;
1799;SDS011;919;48.274;12.292;2023-05-10T05:55:58;0.70;;;0.70;;
1799;SDS011;919;48.274;12.292;2023-05-10T05:58:25;0.67;;;0.67;;
1799;SDS011;919;48.274;12.292;2023-05-10T06:00:52;0.80;;;0.70;;
1799;SDS011;919;48.274;12.292;2023-05-10T06:03:20;0.70;;;0.70;;
1799;SDS011;919;48.274;12.292;2023-05-10T06:05:47;0.50;;;0.50;;
1799;SDS011;919;48.274;12.292;2023-05-10T06:08:14;0.60;;;0.60;;
1799;SDS011;919;48.274;12.292;2023-05-10T06:10:40;2.27;;;1.00;;
1799;SDS011;919;48.274;12.292;2023-05-10T06:13:07;0.83;;;0.70;;
1799;SDS011;919;48.274;12.292;2023-05-10T06:15:34;0.80;;;0.70;;
1799;SDS011;919;48.274;12.292;2023-05-10T06:18:01;0.70;;;0.70;;
1799;SDS011;919;48.274;12.292;2023-05-10T06:20:29;1.00;;;0.93;;
1799;SDS011;919;48.274;12.292;2023-05-10T06:22:57;1.23;;;0.80;;
1799;SDS011;919;48.274;12.292;2023-05-10T06:25:24;1.90;;;0.90;;
1799;SDS011;919;48.274;12.292;2023-05-10T06:27:50;0.70;;;0.60;;
1799;SDS011;919;48.274;12.292;2023-05-10T06:30:21;2.20;;;0.70;;
1799;SDS011;919;48.274;12.292;2023-05-10T06:32:52;0.50;;;0.50;;
1799;SDS011;919;48.274;12.292;2023-05-10T06:35:19;0.50;;;0.50;;
1799;SDS011;919;48.274;12.292;2023-05-10T06:37:48;0.50;;;0.50;;
1799;SDS011;919;48.274;12.292;2023-05-10T06:40:15;0.50;;;0.50;;
1799;SDS011;919;48.274;12.292;2023-05-10T06:42:42;0.30;;;0.30;;
1799;SDS011;919;48.274;12.292;2023-05-10T06:45:10;0.50;;;0.50;;
1799;SDS011;919;48.274;12.292;2023-05-10T06:47:37;0.40;;;0.40;;
1799;SDS011;919;48.274;12.292;2023-05-10T06:50:05;0.50;;;0.50;;
1799;SDS011;919;48.274;12.292;2023-05-10T06:52:32;0.40;;;0.30;;
1799;SDS011;919;48.274;12.292;2023-05-10T06:55:00;0.43;;;0.43;;
1799;SDS011;919;48.274;12.292;2023-05-10T06:57:28;0.50;;;0.50;;
1799;SDS011;919;48.274;12.292;2023-05-10T06:59:55;1.60;;;0.60;;
1799;SDS011;919;48.274;12.292;2023-05-10T07:02:22;0.50;;;0.50;;
1799;SDS011;919;48.274;12.292;2023-05-10T07:04:49;2.83;;;0.50;;
1799;SDS011;919;48.274;12.292;2023-05-10T07:07:16;0.70;;;0.70;;
1799;SDS011;919;48.274;12.292;2023-05-10T07:09:43;2.23;;;0.53;;
1799;SDS011;919;48.274;12.292;2023-05-10T07:12:12;0.70;;;0.70;;
1799;SDS011;919;48.274;12.292;2023-05-10T07:14:39;0.93;;;0.80;;
1799;SDS011;919;48.274;12.292;2023-05-10T07:17:05;0.90;;;0.90;;
1799;SDS011;919;48.274;12.292;2023-05-10T07:19:32;2.10;;;0.87;;
1799;SDS011;919;48.274;12.292;2023-05-10T07:21:59;0.80;;;0.80;;
1799;SDS011;919;48.274;12.292;2023-05-10T07:24:26;0.80;;;0.80;;
1799;SDS011;919;48.274;12.292;2023-05-10T07:26:52;1.07;;;0.97;;
1799;SDS011;919;48.274;12.292;2023-05-10T07:29:20;1.30;;;1.20;;
1799;SDS011;919;48.274;12.292;2023-05-10T07:31:47;1.73;;;1.23;;
1799;SDS011;919;48.274;12.292;2023-05-10T07:34:14;1.10;;;1.10;;
1799;SDS011;919;48.274;12.292;2023-05-10T07:36:41;1.43;;;1.33;;
1799;SDS011;919;48.274;12.292;2023-05-10T07:39:07;1.50;;;1.40;;
1799;SDS011;919;48.274;12.292;2023-05-10T07:41:34;1.20;;;1.20;;
1799;SDS011;919;48.274;12.292;2023-05-10T07:44:02;1.30;;;1.20;;
1799;SDS011;919;48.274;12.292;2023-05-10T07:46:31;4.53;;;1.83;;
1799;SDS011;919;48.274;12.292;2023-05-10T07:48:58;1.60;;;1.50;;
1799;SDS011;919;48.274;12.292;2023-05-10T07:51:24;1.60;;;1.50;;
1799;SDS011;919;48.274;12.292;2023-05-10T07:53:52;1.60;;;1.50;;
1799;SDS011;919;48.274;12.292;2023-05-10T07:56:20;1.87;;;1.77;;
1799;SDS011;919;48.274;12.292;2023-05-10T07:58:48;1.97;;;1.87;;
1799;SDS011;919;48.274;12.292;2023-05-10T08:01:15;2.00;;;1.80;;
1799;SDS011;919;48.274;12.292;2023-05-10T08:03:43;1.70;;;1.60;;
1799;SDS011;919;48.274;12.292;2023-05-10T08:06:09;1.90;;;1.70;;
1799;SDS011;919;48.274;12.292;2023-05-10T08:08:37;1.50;;;1.40;;
1799;SDS011;919;48.274;12.292;2023-05-10T08:11:04;1.67;;;1.57;;
1799;SDS011;919;48.274;12.292;2023-05-10T08:13:30;1.97;;;1.87;;
1799;SDS011;919;48.274;12.292;2023-05-10T08:15:58;1.70;;;1.60;;
1799;SDS011;919;48.274;12.292;2023-05-10T08:18:26;2.70;;;1.77;;
1799;SDS011;919;48.274;12.292;2023-05-10T08:20:54;2.30;;;1.97;;
1799;SDS011;919;48.274;12.292;2023-05-10T08:23:21;1.70;;;1.60;;
1799;SDS011;919;48.274;12.292;2023-05-10T08:25:48;2.00;;;1.90;;
1799;SDS011;919;48.274;12.292;2023-05-10T08:28:15;2.20;;;2.10;;
1799;SDS011;919;48.274;12.292;2023-05-10T08:30:42;2.20;;;2.10;;
1799;SDS011;919;48.274;12.292;2023-05-10T08:33:08;1.90;;;1.80;;
1799;SDS011;919;48.274;12.292;2023-05-10T08:35:35;2.67;;;2.47;;
1799;SDS011;919;48.274;12.292;2023-05-10T08:38:03;2.47;;;2.10;;
1799;SDS011;919;48.274;12.292;2023-05-10T08:40:30;3.70;;;2.33;;
1799;SDS011;919;48.274;12.292;2023-05-10T08:42:58;3.27;;;2.37;;
1799;SDS011;919;48.274;12.292;2023-05-10T08:45:31;2.30;;;2.10;;
1799;SDS011;919;48.274;12.292;2023-05-10T08:47:59;2.10;;;2.00;;
1799;SDS011;919;48.274;12.292;2023-05-10T08:50:27;2.40;;;2.30;;
1799;SDS011;919;48.274;12.292;2023-05-10T08:52:57;2.60;;;2.40;;
1799;SDS011;919;48.274;12.292;2023-05-10T08:55:27;2.27;;;2.17;;
1799;SDS011;919;48.274;12.292;2023-05-10T08:57:54;5.43;;;2.27;;
1799;SDS011;919;48.274;12.292;2023-05-10T09:00:21;2.63;;;2.43;;
1799;SDS011;919;48.274;12.292;2023-05-10T09:02:49;2.30;;;2.20;;
1799;SDS011;919;48.274;12.292;2023-05-10T09:05:16;2.90;;;2.70;;
1799;SDS011;919;48.274;12.292;2023-05-10T09:07:43;3.73;;;2.50;;
1799;SDS011;919;48.274;12.292;2023-05-10T09:10:10;2.70;;;2.50;;
1799;SDS011;919;48.274;12.292;2023-05-10T09:12:38;2.77;;;2.57;;
1799;SDS011;919;48.274;12.292;2023-05-10T09:15:06;2.80;;;2.60;;
1799;SDS011;919;48.274;12.292;2023-05-10T09:17:35;2.23;;;2.13;;
1799;SDS011;919;48.274;12.292;2023-05-10T09:20:03;3.00;;;2.23;;
1799;SDS011;919;48.274;12.292;2023-05-10T09:22:31;2.80;;;2.60;;
1799;SDS011;919;48.274;12.292;2023-05-10T09:25:04;2.80;;;2.60;;
1799;SDS011;919;48.274;12.292;2023-05-10T09:27:32;3.17;;;2.97;;
1799;SDS011;919;48.274;12.292;2023-05-10T09:30:00;2.73;;;2.53;;
1799;SDS011;919;48.274;12.292;2023-05-10T09:32:37;2.03;;;1.90;;
1799;SDS011;919;48.274;12.292;2023-05-10T09:35:08;2.23;;;2.13;;
1799;SDS011;919;48.274;12.292;2023-05-10T09:37:35;2.33;;;2.23;;
1799;SDS011;919;48.274;12.292;2023-05-10T09:40:04;1.73;;;1.63;;
1799;SDS011;919;48.274;12.292;2023-05-10T09:42:32;2.80;;;2.37;;
1799;SDS011;919;48.274;12.292;2023-05-10T09:45:01;2.37;;;2.17;;
1799;SDS011;919;48.274;12.292;2023-05-10T09:47:29;2.30;;;2.20;;
1799;SDS011;919;48.274;12.292;2023-05-10T09:49:58;1.90;;;1.70;;
1799;SDS011;919;48.274;12.292;2023-05-10T09:52:28;2.23;;;2.07;;
1799;SDS011;919;48.274;12.292;2023-05-10T09:54:56;1.97;;;1.87;;
1799;SDS011;919;48.274;12.292;2023-05-10T09:57:23;3.30;;;1.73;;
1799;SDS011;919;48.274;12.292;2023-05-10T09:59:50;1.80;;;1.70;;
1799;SDS011;919;48.274;12.292;2023-05-10T10:02:20;1.50;;;1.40;;
1799;SDS011;919;48.274;12.292;2023-05-10T10:04:54;1.37;;;1.30;;
1799;SDS011;919;48.274;12.292;2023-05-10T10:07:22;1.93;;;1.40;;
1799;SDS011;919;48.274;12.292;2023-05-10T10:09:49;1.67;;;1.57;;
1799;SDS011;919;48.274;12.292;2023-05-10T10:12:16;1.80;;;1.70;;
1799;SDS011;919;48.274;12.292;2023-05-10T10:14:44;2.00;;;1.90;;
1799;SDS011;919;48.274;12.292;2023-05-10T10:17:11;2.60;;;1.40;;
1799;SDS011;919;48.274;12.292;2023-05-10T10:19:40;3.17;;;1.60;;
1799;SDS011;919;48.274;12.292;2023-05-10T10:22:08;1.83;;;1.73;;
1799;SDS011;919;48.274;12.292;2023-05-10T10:24:36;1.90;;;1.80;;
1799;SDS011;919;48.274;12.292;2023-05-10T10:27:07;2.37;;;2.17;;
1799;SDS011;919;48.274;12.292;2023-05-10T10:29:44;2.47;;;2.30;;
1799;SDS011;919;48.274;12.292;2023-05-10T10:32:19;1.80;;;1.50;;
1799;SDS011;919;48.274;12.292;2023-05-10T10:34:51;2.17;;;2.07;;
1799;SDS011;919;48.274;12.292;2023-05-10T10:37:19;2.27;;;2.10;;
1799;SDS011;919;48.274;12.292;2023-05-10T10:39:47;2.20;;;2.00;;
1799;SDS011;919;48.274;12.292;2023-05-10T10:42:14;4.07;;;2.50;;
1799;SDS011;919;48.274;12.292;2023-05-10T10:45:12;2.53;;;2.33;;
1799;SDS011;919;48.274;12.292;2023-05-10T10:47:39;3.00;;;2.80;;
1799;SDS011;919;48.274;12.292;2023-05-10T10:50:09;2.70;;;2.27;;
1799;SDS011;919;48.274;12.292;2023-05-10T10:52:38;7.27;;;6.67;;
1799;SDS011;919;48.274;12.292;2023-05-10T10:55:06;4.90;;;4.50;;
1799;SDS011;919;48.274;12.292;2023-05-10T10:57:42;4.07;;;3.77;;
1799;SDS011;919;48.274;12.292;2023-05-10T11:00:26;3.83;;;3.53;;
1799;SDS011;919;48.274;12.292;2023-05-10T11:02:55;2.80;;;2.60;;
1799;SDS011;919;48.274;12.292;2023-05-10T11:08:08;3.00;;;2.70;;
1799;SDS011;919;48.274;12.292;2023-05-10T11:10:37;2.13;;;1.93;;
1799;SDS011;919;48.274;12.292;2023-05-10T11:13:05;2.20;;;2.10;;
1799;SDS011;919;48.274;12.292;2023-05-10T11:15:34;2.17;;;1.97;;
1799;SDS011;919;48.274;12.292;2023-05-10T11:18:16;1.80;;;1.50;;
1799;SDS011;919;48.274;12.292;2023-05-10T11:20:45;0.97;;;0.80;;
1799;SDS011;919;48.274;12.292;2023-05-10T11:23:16;1.10;;;1.07;;
1799;SDS011;919;48.274;12.292;2023-05-10T11:25:44;1.00;;;1.00;;
1799;SDS011;919;48.274;12.292;2023-05-10T11:28:12;1.27;;;0.90;;
1799;SDS011;919;48.274;12.292;2023-05-10T11:30:39;0.90;;;0.90;;
1799;SDS011;919;48.274;12.292;2023-05-10T11:33:07;2.10;;;0.83;;
1799;SDS011;919;48.274;12.292;2023-05-10T11:35:38;2.43;;;1.00;;
1799;SDS011;919;48.274;12.292;2023-05-10T11:38:07;1.73;;;1.30;;
1799;SDS011;919;48.274;12.292;2023-05-10T11:40:35;1.20;;;1.10;;
1799;SDS011;919;48.274;12.292;2023-05-10T11:43:02;1.23;;;1.13;;
1799;SDS011;919;48.274;12.292;2023-05-10T11:45:31;2.30;;;1.67;;
1799;SDS011;919;48.274;12.292;2023-05-10T11:47:58;1.30;;;1.20;;
1799;SDS011;919;48.274;12.292;2023-05-10T11:50:26;1.47;;;1.37;;
1799;SDS011;919;48.274;12.292;2023-05-10T11:52:54;1.90;;;1.43;;
1799;SDS011;919;48.274;12.292;2023-05-10T11:55:23;1.40;;;1.30;;
1799;SDS011;919;48.274;12.292;2023-05-10T11:57:51;2.20;;;2.00;;
1799;SDS011;919;48.274;12.292;2023-05-10T12:00:18;1.67;;;1.40;;
1799;SDS011;919;48.274;12.292;2023-05-10T12:02:45;1.87;;;1.77;;
1799;SDS011;919;48.274;12.292;2023-05-10T12:05:12;2.90;;;1.67;;
1799;SDS011;919;48.274;12.292;2023-05-10T12:07:39;1.90;;;1.80;;
1799;SDS011;919;48.274;12.292;2023-05-10T12:10:07;2.67;;;1.53;;
1799;SDS011;919;48.274;12.292;2023-05-10T12:12:37;1.67;;;1.57;;
1799;SDS011;919;48.274;12.292;2023-05-10T12:15:07;1.60;;;1.43;;
1799;SDS011;919;48.274;12.292;2023-05-10T12:17:37;2.13;;;1.93;;
1799;SDS011;919;48.274;12.292;2023-05-10T12:20:15;1.37;;;1.30;;
1799;SDS011;919;48.274;12.292;2023-05-10T12:22:49;2.00;;;1.90;;
1799;SDS011;919;48.274;12.292;2023-05-10T12:25:17;2.33;;;2.13;;
1799;SDS011;919;48.274;12.292;2023-05-10T12:27:49;2.00;;;1.90;;
1799;SDS011;919;48.274;12.292;2023-05-10T12:30:21;2.43;;;2.20;;
1799;SDS011;919;48.274;12.292;2023-05-10T12:32:48;2.53;;;1.70;;
1799;SDS011;919;48.274;12.292;2023-05-10T12:35:15;2.00;;;1.90;;
1799;SDS011;919;48.274;12.292;2023-05-10T12:37:42;3.50;;;2.50;;
1799;SDS011;919;48.274;12.292;2023-05-10T12:40:09;2.30;;;2.17;;
1799;SDS011;919;48.274;12.292;2023-05-10T12:42:38;4.03;;;2.50;;
1799;SDS011;919;48.274;12.292;2023-05-10T12:45:07;2.40;;;2.10;;
1799;SDS011;919;48.274;12.292;2023-05-10T12:47:35;1.90;;;1.80;;
1799;SDS011;919;48.274;12.292;2023-05-10T12:50:02;2.57;;;2.33;;
1799;SDS011;919;48.274;12.292;2023-05-10T12:52:30;1.93;;;1.83;;
1799;SDS011;919;48.274;12.292;2023-05-10T12:54:58;2.00;;;1.90;;
1799;SDS011;919;48.274;12.292;2023-05-10T12:57:25;2.53;;;2.00;;
1799;SDS011;919;48.274;12.292;2023-05-10T12:59:52;2.80;;;2.17;;
1799;SDS011;919;48.274;12.292;2023-05-10T13:02:21;3.20;;;2.83;;
1799;SDS011;919;48.274;12.292;2023-05-10T13:04:48;3.67;;;3.37;;
1799;SDS011;919;48.274;12.292;2023-05-10T13:07:15;2.70;;;2.40;;
1799;SDS011;919;48.274;12.292;2023-05-10T13:09:42;3.53;;;2.97;;
1799;SDS011;919;48.274;12.292;2023-05-10T13:12:08;4.23;;;2.70;;
1799;SDS011;919;48.274;12.292;2023-05-10T13:14:35;2.53;;;2.33;;
1799;SDS011;919;48.274;12.292;2023-05-10T13:17:02;2.73;;;2.53;;
1799;SDS011;919;48.274;12.292;2023-05-10T13:19:30;3.30;;;3.00;;
1799;SDS011;919;48.274;12.292;2023-05-10T13:21:56;3.00;;;2.80;;
1799;SDS011;919;48.274;12.292;2023-05-10T13:24:23;2.60;;;2.40;;
1799;SDS011;919;48.274;12.292;2023-05-10T13:26:50;2.57;;;2.33;;
1799;SDS011;919;48.274;12.292;2023-05-10T13:29:17;3.63;;;2.30;;
1799;SDS011;919;48.274;12.292;2023-05-10T13:31:44;3.20;;;2.43;;
1799;SDS011;919;48.274;12.292;2023-05-10T13:34:10;2.60;;;2.40;;
1799;SDS011;919;48.274;12.292;2023-05-10T13:36:38;2.50;;;2.30;;
1799;SDS011;919;48.274;12.292;2023-05-10T13:39:05;3.47;;;3.17;;
1799;SDS011;919;48.274;12.292;2023-05-10T13:41:32;2.87;;;2.67;;
1799;SDS011;919;48.274;12.292;2023-05-10T13:43:59;3.97;;;3.57;;
1799;SDS011;919;48.274;12.292;2023-05-10T13:46:25;3.90;;;3.60;;
1799;SDS011;919;48.274;12.292;2023-05-10T13:48:52;3.20;;;2.93;;
1799;SDS011;919;48.274;12.292;2023-05-10T13:51:19;3.70;;;2.93;;
1799;SDS011;919;48.274;12.292;2023-05-10T13:53:47;3.50;;;3.20;;
1799;SDS011;919;48.274;12.292;2023-05-10T13:56:14;3.60;;;3.27;;
1799;SDS011;919;48.274;12.292;2023-05-10T13:58:41;6.43;;;2.73;;
1799;SDS011;919;48.274;12.292;2023-05-10T14:01:07;4.70;;;2.17;;
1799;SDS011;919;48.274;12.292;2023-05-10T14:03:36;2.40;;;2.20;;
1799;SDS011;919;48.274;12.292;2023-05-10T14:06:03;3.60;;;2.57;;
1799;SDS011;919;48.274;12.292;2023-05-10T14:08:32;3.73;;;2.40;;
1799;SDS011;919;48.274;12.292;2023-05-10T14:11:00;9.00;;;3.70;;
1799;SDS011;919;48.274;12.292;2023-05-10T14:13:27;2.90;;;2.20;;
1799;SDS011;919;48.274;12.292;2023-05-10T14:15:54;3.03;;;2.20;;
1799;SDS011;919;48.274;12.292;2023-05-10T14:18:21;1.50;;;1.40;;
1799;SDS011;919;48.274;12.292;2023-05-10T14:20:48;3.07;;;2.10;;
1799;SDS011;919;48.274;12.292;2023-05-10T14:23:15;1.90;;;1.80;;
1799;SDS011;919;48.274;12.292;2023-05-10T14:25:41;2.33;;;2.03;;
1799;SDS011;919;48.274;12.292;2023-05-10T14:28:10;2.63;;;2.40;;
1799;SDS011;919;48.274;12.292;2023-05-10T14:30:37;2.43;;;2.23;;
1799;SDS011;919;48.274;12.292;2023-05-10T14:33:04;2.03;;;1.80;;
1799;SDS011;919;48.274;12.292;2023-05-10T14:35:30;3.27;;;2.33;;
1799;SDS011;919;48.274;12.292;2023-05-10T14:37:57;2.97;;;1.93;;
1799;SDS011;919;48.274;12.292;2023-05-10T14:40:24;2.33;;;2.00;;
1799;SDS011;919;48.274;12.292;2023-05-10T14:42:51;2.00;;;1.80;;
1799;SDS011;919;48.274;12.292;2023-05-10T14:45:20;3.00;;;1.57;;
1799;SDS011;919;48.274;12.292;2023-05-10T14:47:47;1.73;;;1.43;;
1799;SDS011;919;48.274;12.292;2023-05-10T14:50:14;1.60;;;1.50;;
1799;SDS011;919;48.274;12.292;2023-05-10T14:52:42;1.40;;;1.30;;
1799;SDS011;919;48.274;12.292;2023-05-10T14:55:08;1.87;;;1.47;;
1799;SDS011;919;48.274;12.292;2023-05-10T14:57:36;2.13;;;1.67;;
1799;SDS011;919;48.274;12.292;2023-05-10T15:00:03;1.50;;;1.40;;
1799;SDS011;919;48.274;12.292;2023-05-10T15:02:32;1.27;;;1.17;;
1799;SDS011;919;48.274;12.292;2023-05-10T15:04:59;1.40;;;1.30;;
1799;SDS011;919;48.274;12.292;2023-05-10T15:07:26;4.20;;;1.20;;
1799;SDS011;919;48.274;12.292;2023-05-10T15:09:52;1.80;;;1.27;;
1799;SDS011;919;48.274;12.292;2023-05-10T15:12:20;1.47;;;1.23;;
1799;SDS011;919;48.274;12.292;2023-05-10T15:14:46;1.43;;;1.33;;
1799;SDS011;919;48.274;12.292;2023-05-10T15:17:13;1.47;;;1.23;;
1799;SDS011;919;48.274;12.292;2023-05-10T15:19:42;1.73;;;1.63;;
1799;SDS011;919;48.274;12.292;2023-05-10T15:22:09;1.90;;;1.40;;
1799;SDS011;919;48.274;12.292;2023-05-10T15:24:36;2.53;;;1.40;;